Time;durP1;ratioP1;P1;durP2;ratioP2;P2;SDS_P1;SDS_P2;PMS_P1;PMS_P2;Temp;Humidity;BMP_temperature;BMP_pressure;BME280_temperature;BME280_humidity;BME280_pressure;Samples;Min_cycle;Max_cycle;Signal;HPM_P1;HPM_P2
2022/01/10 00:01:43;;;;;;;2.20;2.00;;;;;;;5.23;100.00;62531.69;5080657;28;20200;-77
2022/01/10 00:04:09;;;;;;;2.15;1.75;;;;;;;5.31;100.00;62550.03;5086839;28;20226;-77
2022/01/10 00:06:37;;;;;;;2.10;2.00;;;;;;;5.33;100.00;62546.53;5086023;28;20220;-77
2022/01/10 00:09:05;;;;;;;2.92;2.17;;;;;;;5.35;100.00;62551.59;5068064;28;20276;-77
2022/01/10 00:11:32;;;;;;;2.03;1.92;;;;;;;5.36;100.00;62547.59;5083324;28;20238;-77
2022/01/10 00:13:58;;;;;;;1.38;1.38;;;;;;;5.37;100.00;62548.63;5087278;28;20262;-77
2022/01/10 00:16:27;;;;;;;1.50;1.40;;;;;;;5.26;100.00;62541.84;5067362;28;20205;-77
2022/01/10 00:18:54;;;;;;;1.55;1.50;;;;;;;5.36;100.00;62547.06;5074146;28;20232;-76
2022/01/10 00:21:20;;;;;;;1.58;1.52;;;;;;;5.38;100.00;62552.19;5089616;28;20197;-76
2022/01/10 00:23:47;;;;;;;1.55;1.45;;;;;;;5.41;100.00;62552.75;5073089;28;20220;-77
2022/01/10 00:26:14;;;;;;;1.92;1.40;;;;;;;5.24;100.00;62535.25;5087547;28;20235;-76
2022/01/10 00:28:41;;;;;;;1.70;1.60;;;;;;;5.19;100.00;62534.63;5088011;28;20254;-77
2022/01/10 00:31:09;;;;;;;2.05;1.77;;;;;;;5.25;100.00;62541.31;5088361;28;20235;-77
2022/01/10 00:33:37;;;;;;;1.95;1.85;;;;;;;5.40;100.00;62553.72;5095784;28;20252;-77
2022/01/10 00:36:04;;;;;;;3.83;1.67;;;;;;;5.18;100.00;62531.56;5096941;28;20196;-77
2022/01/10 00:38:31;;;;;;;1.70;1.60;;;;;;;5.20;100.00;62530.59;5096941;28;20228;-76
2022/01/10 00:41:00;;;;;;;1.80;1.70;;;;;;;5.27;100.00;62545.91;5094478;28;20243;-77
2022/01/10 00:43:32;;;;;;;1.65;1.55;;;;;;;5.32;100.00;62548.53;5088793;28;20231;-77
2022/01/10 00:46:00;;;;;;;2.72;2.53;;;;;;;5.26;100.00;62541.84;5090757;28;20214;-77
2022/01/10 00:48:27;;;;;;;2.28;2.13;;;;;;;5.33;100.00;62544.00;5090505;28;20539;-77
2022/01/10 00:50:55;;;;;;;2.58;2.45;;;;;;;5.38;100.00;62552.19;5086770;28;20200;-76
2022/01/10 00:53:25;;;;;;;2.92;2.67;;;;;;;5.44;100.00;62558.34;5092521;28;20243;-77
2022/01/10 00:55:52;;;;;;;2.30;2.20;;;;;;;5.42;100.00;62555.78;5087911;28;20225;-77
2022/01/10 00:58:19;;;;;;;2.20;1.92;;;;;;;5.40;100.00;62551.22;5087529;28;20280;-77
2022/01/10 01:00:46;;;;;;;2.33;2.13;;;;;;;5.46;100.00;62557.38;5079001;28;20509;-77
2022/01/10 01:03:13;;;;;;;2.20;2.10;;;;;;;5.44;100.00;62557.84;5070573;28;20239;-77
2022/01/10 01:05:42;;;;;;;1.88;1.77;;;;;;;5.51;100.00;62567.56;5066869;28;20235;-76
2022/01/10 01:08:11;;;;;;;2.35;2.25;;;;;;;5.54;100.00;62565.63;5079242;28;20209;-77
2022/01/10 01:13:28;;;;;;;3.05;2.90;;;;;;;5.59;100.00;62573.31;5082577;28;20448;-77
2022/01/10 01:16:12;;;;;;;2.13;2.03;;;;;;;5.66;100.00;62581.03;5083953;28;20201;-77
2022/01/10 01:19:07;;;;;;;2.78;2.60;;;;;;;5.68;100.00;62585.09;5077321;28;20224;-76
2022/01/10 01:24:20;;;;;;;2.67;2.47;;;;;;;5.73;100.00;62585.19;5075611;28;20270;-77
2022/01/10 01:26:49;;;;;;;2.60;2.28;;;;;;;5.77;100.00;62591.84;5071255;28;20196;-77
2022/01/10 01:29:18;;;;;;;1.73;1.63;;;;;;;5.63;100.00;62577.94;5085900;28;20426;-76
2022/01/10 01:31:46;;;;;;;1.88;1.77;;;;;;;5.42;100.00;62553.25;5086589;28;20246;-76
2022/01/10 01:34:15;;;;;;;2.83;2.58;;;;;;;5.40;100.00;62558.78;5086917;28;20441;-78
2022/01/10 01:36:45;;;;;;;2.28;2.17;;;;;;;5.28;100.00;62543.91;5085013;28;20501;-77
2022/01/10 01:39:18;;;;;;;4.15;1.90;;;;;;;5.23;100.00;62536.72;5090052;28;20220;-76
2022/01/10 01:41:47;;;;;;;5.03;2.28;;;;;;;5.11;100.00;62524.38;5086204;28;20204;-77
2022/01/10 01:44:14;;;;;;;2.47;2.28;;;;;;;5.13;100.00;62530.97;5085693;28;20227;-76
2022/01/10 01:46:42;;;;;;;2.30;2.20;;;;;;;5.10;100.00;62525.34;5085528;28;20197;-77
2022/01/10 01:49:11;;;;;;;3.20;2.00;;;;;;;4.94;100.00;62506.88;5085260;28;20247;-77
2022/01/10 01:51:38;;;;;;;2.42;2.30;;;;;;;4.82;100.00;62493.97;5084847;28;20200;-76
2022/01/10 01:54:05;;;;;;;3.30;2.15;;;;;;;4.86;100.00;62498.63;5082054;28;20220;-77
2022/01/10 01:56:32;;;;;;;2.58;2.38;;;;;;;4.92;100.00;62504.81;5065209;28;20197;-77
2022/01/10 01:59:01;;;;;;;2.28;2.17;;;;;;;4.85;100.00;62494.56;5066234;28;20522;-76
2022/01/10 02:01:28;;;;;;;1.85;1.75;;;;;;;4.78;100.00;62495.44;5085782;28;20260;-77
2022/01/10 02:03:55;;;;;;;2.35;2.25;;;;;;;4.86;100.00;62498.63;5082421;28;20216;-77
2022/01/10 02:06:22;;;;;;;2.38;2.20;;;;;;;4.78;100.00;62490.38;5083702;28;20189;-77
2022/01/10 02:08:49;;;;;;;2.08;1.98;;;;;;;4.90;100.00;62502.75;5084835;28;20274;-76
2022/01/10 02:11:16;;;;;;;1.90;1.80;;;;;;;4.94;100.00;62508.88;5085218;28;20250;-77
2022/01/10 02:13:44;;;;;;;4.80;2.20;;;;;;;4.95;100.00;62510.44;5082499;28;20297;-78
2022/01/10 02:16:17;;;;;;;2.17;2.08;;;;;;;4.84;100.00;62498.56;5085194;28;20375;-77
2022/01/10 02:18:44;;;;;;;2.35;2.10;;;;;;;4.92;100.00;62507.31;5084527;28;20243;-77
2022/01/10 02:21:14;;;;;;;2.10;2.00;;;;;;;4.82;100.00;62491.97;5098156;28;20509;-76
2022/01/10 02:23:42;;;;;;;2.42;2.22;;;;;;;4.81;100.00;62493.47;5081982;28;20225;-76
2022/01/10 02:26:09;;;;;;;2.72;2.33;;;;;;;4.66;100.00;62481.06;5062521;28;20205;-76
2022/01/10 02:28:36;;;;;;;2.70;2.50;;;;;;;4.72;100.00;62482.22;5063568;28;20249;-77
2022/01/10 02:31:03;;;;;;;4.55;2.47;;;;;;;4.73;100.00;62485.25;5076399;28;20201;-76
2022/01/10 02:33:32;;;;;;;2.60;2.35;;;;;;;4.81;100.00;62495.50;5084903;28;20254;-76
2022/01/10 02:36:08;;;;;;;2.42;2.22;;;;;;;4.77;100.00;62484.31;5071092;28;20202;-76
2022/01/10 02:38:36;;;;;;;2.90;2.30;;;;;;;4.84;100.00;62496.06;5065121;28;20231;-76
2022/01/10 02:41:04;;;;;;;2.78;2.60;;;;;;;4.82;100.00;62493.97;5083348;28;20204;-75
2022/01/10 02:43:31;;;;;;;3.20;2.85;;;;;;;4.76;100.00;62485.81;5083592;28;20270;-75
2022/01/10 02:45:57;;;;;;;2.15;2.05;;;;;;;4.83;100.00;62500.59;5084002;28;20215;-76
2022/01/10 02:48:25;;;;;;;2.88;2.53;;;;;;;4.73;100.00;62487.75;5083129;28;20216;-76
2022/01/10 02:50:52;;;;;;;2.80;2.60;;;;;;;4.81;100.00;62490.97;5083171;28;20204;-75
2022/01/10 02:53:19;;;;;;;2.38;2.20;;;;;;;4.82;100.00;62496.50;5076245;28;20259;-76
2022/01/10 02:55:47;;;;;;;2.20;2.05;;;;;;;4.83;100.00;62495.56;5083160;28;20399;-76
2022/01/10 02:58:14;;;;;;;2.10;1.85;;;;;;;4.74;100.00;62481.22;5078168;28;20194;-76
2022/01/10 03:00:41;;;;;;;3.83;2.22;;;;;;;4.94;100.00;62503.81;5064689;28;20207;-76
2022/01/10 03:03:08;;;;;;;1.60;1.50;;;;;;;5.01;100.00;62511.56;5074309;28;20234;-76
2022/01/10 03:05:35;;;;;;;1.67;1.58;;;;;;;5.02;100.00;62515.09;5079738;28;20261;-76
2022/01/10 03:08:03;;;;;;;1.30;1.30;;;;;;;5.07;100.00;62522.25;5078716;28;20215;-76
2022/01/10 03:10:30;;;;;;;1.10;1.10;;;;;;;5.01;100.00;62513.56;5086566;28;20196;-76
2022/01/10 03:13:01;;;;;;;0.93;0.93;;;;;;;5.00;100.00;62515.06;5089150;28;20229;-76
2022/01/10 03:15:28;;;;;;;1.42;1.33;;;;;;;5.09;100.00;62522.31;5092524;28;20256;-76
2022/01/10 03:17:55;;;;;;;1.38;1.38;;;;;;;5.13;100.00;62528.94;5077291;28;20228;-77
2022/01/10 03:20:23;;;;;;;0.90;0.90;;;;;;;5.12;100.00;62522.88;5104937;28;20245;-76
2022/01/10 03:22:50;;;;;;;0.95;0.95;;;;;;;5.13;100.00;62523.38;5098555;28;20216;-76
2022/01/10 03:25:17;;;;;;;1.42;1.33;;;;;;;5.18;100.00;62533.56;5077126;28;20213;-76
2022/01/10 03:27:44;;;;;;;1.58;1.45;;;;;;;5.30;100.00;62543.41;5088048;28;20204;-75
2022/01/10 03:30:12;;;;;;;1.55;1.45;;;;;;;5.33;100.00;62546.53;5091549;28;20541;-76
2022/01/10 03:32:40;;;;;;;2.88;2.67;;;;;;;5.40;100.00;62553.72;5086191;28;20228;-76
2022/01/10 03:35:07;;;;;;;4.50;4.07;;;;;;;5.17;100.00;62530.56;5066212;28;20542;-76
2022/01/10 03:37:34;;;;;;;4.18;3.80;;;;;;;5.24;100.00;62540.28;5065326;28;20502;-76
2022/01/10 03:40:01;;;;;;;3.40;3.15;;;;;;;5.26;100.00;62537.31;5064400;28;20538;-76
2022/01/10 03:42:28;;;;;;;3.50;3.15;;;;;;;5.21;100.00;62534.16;5068856;28;20517;-76
2022/01/10 03:44:54;;;;;;;2.90;2.80;;;;;;;5.20;100.00;62538.69;5083223;28;20220;-75
2022/01/10 03:47:23;;;;;;;3.33;3.10;;;;;;;5.22;100.00;62540.75;5085875;28;20196;-75
2022/01/10 03:49:51;;;;;;;2.40;2.30;;;;;;;5.25;100.00;62538.78;5085130;28;20480;-75
2022/01/10 03:52:18;;;;;;;3.20;2.92;;;;;;;5.14;100.00;62527.47;5075259;28;20260;-74
2022/01/10 03:54:45;;;;;;;3.20;2.72;;;;;;;5.16;100.00;62532.03;5064761;28;20406;-76
2022/01/10 03:57:12;;;;;;;2.80;2.60;;;;;;;5.09;100.00;62521.81;5076944;28;20216;-75
2022/01/10 03:59:39;;;;;;;2.25;2.15;;;;;;;5.21;100.00;62534.66;5064246;28;20233;-76
2022/01/10 04:02:06;;;;;;;2.05;1.73;;;;;;;5.26;100.00;62536.78;5069124;28;20574;-76
2022/01/10 04:04:37;;;;;;;1.88;1.83;;;;;;;5.31;100.00;62544.97;5083538;28;20224;-76
2022/01/10 04:07:04;;;;;;;2.13;1.95;;;;;;;5.33;100.00;62549.53;5077770;28;20211;-76
2022/01/10 04:09:31;;;;;;;2.35;2.20;;;;;;;5.26;100.00;62539.31;5079515;28;20244;-76
2022/01/10 04:11:58;;;;;;;5.95;2.10;;;;;;;5.36;100.00;62542.03;5063739;28;20205;-76
2022/01/10 04:14:25;;;;;;;2.05;1.95;;;;;;;5.39;100.00;62555.72;5063996;28;20243;-76
2022/01/10 04:16:51;;;;;;;5.63;2.67;;;;;;;5.34;100.00;62545.00;5071917;28;20204;-76
2022/01/10 04:19:18;;;;;;;6.95;5.45;;;;;;;5.11;100.00;62521.84;5086281;28;20318;-76
2022/01/10 04:21:46;;;;;;;8.00;5.15;;;;;;;5.02;100.00;62517.13;5103684;28;20249;-75
2022/01/10 04:24:15;;;;;;;10.85;6.65;;;;;;;4.86;100.00;62496.09;5084196;28;20208;-75
2022/01/10 04:26:42;;;;;;;10.15;6.07;;;;;;;4.51;100.00;62465.13;5083128;28;20219;-76
2022/01/10 04:29:09;;;;;;;11.60;6.50;;;;;;;4.75;100.00;62489.81;5078042;28;20224;-76
2022/01/10 04:31:36;;;;;;;13.20;8.07;;;;;;;4.79;100.00;62490.91;5074735;28;20448;-76
2022/01/10 04:34:03;;;;;;;12.38;7.82;;;;;;;4.71;100.00;62483.69;5064007;28;20233;-75
2022/01/10 04:36:30;;;;;;;10.65;7.03;;;;;;;4.70;100.00;62479.63;5066084;28;20551;-76
2022/01/10 04:38:58;;;;;;;60.22;33.83;;;;;;;4.84;100.00;62496.06;5071897;28;20221;-76
2022/01/10 04:41:25;;;;;;;11.52;6.78;;;;;;;4.70;100.00;62482.66;5069139;28;20211;-76
2022/01/10 04:43:52;;;;;;;7.28;5.30;;;;;;;4.73;100.00;62485.25;5067791;28;20221;-75
2022/01/10 04:46:19;;;;;;;8.15;6.25;;;;;;;4.86;100.00;62503.69;5071335;28;20193;-75
2022/01/10 04:48:46;;;;;;;8.65;5.10;;;;;;;4.86;100.00;62500.63;5070010;28;20277;-76
2022/01/10 04:51:15;;;;;;;6.57;4.75;;;;;;;4.85;100.00;62500.13;5083968;28;20193;-75
2022/01/10 04:53:44;;;;;;;3.97;3.67;;;;;;;4.83;100.00;62492.50;5086404;28;20236;-74
2022/01/10 04:56:13;;;;;;;34.35;21.15;;;;;;;4.94;100.00;62503.81;5087494;28;20272;-76
2022/01/10 04:58:42;;;;;;;25.58;14.10;;;;;;;5.03;100.00;62518.13;5085444;28;20220;-75
2022/01/10 05:01:09;;;;;;;7.40;3.90;;;;;;;5.11;100.00;62523.88;5086758;28;20193;-76
2022/01/10 05:03:37;;;;;;;5.25;4.22;;;;;;;5.20;100.00;62533.63;5083673;28;20280;-75
2022/01/10 05:06:04;;;;;;;4.85;4.13;;;;;;;5.21;100.00;62537.19;5086156;28;20430;-75
2022/01/10 05:08:31;;;;;;;4.90;3.72;;;;;;;5.23;100.00;62536.22;5083253;28;20274;-76
2022/01/10 05:10:58;;;;;;;4.07;3.70;;;;;;;5.23;100.00;62536.22;5086756;28;20233;-76
2022/01/10 05:13:26;;;;;;;10.27;6.80;;;;;;;5.31;100.00;62544.97;5088320;28;20232;-76
2022/01/10 05:15:54;;;;;;;11.13;6.75;;;;;;;5.28;100.00;62541.88;5085800;28;20204;-76
2022/01/10 05:18:24;;;;;;;12.85;6.53;;;;;;;5.21;100.00;62537.19;5084177;28;20604;-78
2022/01/10 05:20:51;;;;;;;20.42;7.57;;;;;;;5.20;100.00;62530.59;5087110;28;20225;-79
2022/01/10 05:23:18;;;;;;;17.63;7.10;;;;;;;5.18;100.00;62531.06;5086902;28;20197;-78
2022/01/10 05:25:46;;;;;;;4.68;4.28;;;;;;;5.07;100.00;62520.25;5073677;28;20239;-79
2022/01/10 05:28:17;;;;;;;5.07;4.57;;;;;;;5.01;100.00;62516.59;5069272;28;20365;-79
2022/01/10 05:30:48;;;;;;;6.13;4.80;;;;;;;5.12;100.00;62524.88;5086747;28;20200;-79
2022/01/10 05:33:14;;;;;;;24.10;13.63;;;;;;;4.97;100.00;62511.97;5088861;28;20220;-79
2022/01/10 05:35:44;;;;;;;17.42;11.82;;;;;;;4.90;100.00;62502.75;5090297;28;20207;-79
2022/01/10 05:38:11;;;;;;;11.48;6.80;;;;;;;4.84;100.00;62501.63;5091134;28;20189;-80
2022/01/10 05:40:38;;;;;;;7.72;6.43;;;;;;;4.65;100.00;62474.50;5088976;28;20223;-81
2022/01/10 05:43:05;;;;;;;9.55;6.45;;;;;;;4.60;100.00;62469.88;5070811;28;20205;-81
2022/01/10 05:45:32;;;;;;;12.80;6.15;;;;;;;4.73;100.00;62487.75;5079194;28;20208;-80
2022/01/10 05:48:07;;;;;;;15.35;7.45;;;;;;;4.80;100.00;62497.50;5090981;28;20231;-80
2022/01/10 05:50:35;;;;;;;25.02;10.10;;;;;;;4.60;100.00;62472.38;5087202;28;20400;-81
2022/01/10 05:53:02;;;;;;;13.95;7.88;;;;;;;4.50;100.00;62459.06;5081995;28;20256;-81
2022/01/10 05:55:29;;;;;;;12.45;8.80;;;;;;;4.53;100.00;62462.13;5089760;28;20197;-80
2022/01/10 05:57:56;;;;;;;14.00;8.68;;;;;;;4.45;100.00;62459.44;5086689;28;20213;-80
2022/01/10 06:00:23;;;;;;;12.05;8.18;;;;;;;4.34;100.00;62448.16;5085717;28;20209;-79
2022/01/10 06:02:51;;;;;;;17.88;10.65;;;;;;;4.33;100.00;62444.09;5091231;28;20385;-80
2022/01/10 06:05:19;;;;;;;14.70;9.68;;;;;;;4.29;100.00;62439.97;5091146;28;20239;-79
2022/01/10 06:07:46;;;;;;;13.55;9.65;;;;;;;4.47;100.00;62461.50;5086556;28;20200;-80
2022/01/10 06:10:13;;;;;;;8.45;6.45;;;;;;;4.47;100.00;62459.00;5094611;28;20216;-79
2022/01/10 06:12:40;;;;;;;10.85;7.43;;;;;;;4.30;100.00;62438.97;5097246;28;20196;-80
2022/01/10 06:15:08;;;;;;;12.82;8.38;;;;;;;4.45;100.00;62453.91;5090711;28;20224;-80
2022/01/10 06:17:35;;;;;;;11.57;9.63;;;;;;;4.56;100.00;62472.78;5078300;28;20201;-81
2022/01/10 06:20:02;;;;;;;14.45;8.30;;;;;;;4.54;100.00;62468.19;5089741;28;20263;-80
2022/01/10 06:22:30;;;;;;;20.15;8.63;;;;;;;4.39;100.00;62450.25;5090771;28;20226;-80
2022/01/10 06:24:57;;;;;;;12.38;7.85;;;;;;;4.37;100.00;62446.19;5094827;28;20258;-81
2022/01/10 06:27:24;;;;;;;16.10;9.60;;;;;;;4.37;100.00;62453.22;5090714;28;20280;-80
2022/01/10 06:29:51;;;;;;;16.05;8.85;;;;;;;4.35;100.00;62446.66;5090164;28;20442;-80
2022/01/10 06:32:18;;;;;;;13.60;9.35;;;;;;;4.27;100.00;62437.91;5105655;28;20196;-80
2022/01/10 06:34:44;;;;;;;15.48;10.43;;;;;;;4.35;100.00;62446.66;5097912;28;20312;-79
2022/01/10 06:37:12;;;;;;;14.88;10.70;;;;;;;4.39;100.00;62445.72;5086439;28;20201;-80
2022/01/10 06:39:40;;;;;;;14.88;11.52;;;;;;;4.39;100.00;62453.28;5110055;28;20215;-80
2022/01/10 06:42:07;;;;;;;16.85;10.77;;;;;;;4.54;100.00;62465.69;5108108;28;20188;-79
2022/01/10 06:44:34;;;;;;;35.83;16.40;;;;;;;4.54;100.00;62465.69;5073392;28;20247;-80
2022/01/10 06:47:01;;;;;;;26.23;14.38;;;;;;;4.43;100.00;62454.38;5092556;28;20197;-79
2022/01/10 06:49:28;;;;;;;33.38;18.60;;;;;;;4.49;100.00;62458.00;5093051;28;20216;-79
2022/01/10 06:51:55;;;;;;;29.48;15.43;;;;;;;4.46;100.00;62457.97;5092208;28;20517;-79
2022/01/10 06:54:22;;;;;;;27.58;15.02;;;;;;;4.56;100.00;62467.75;5090580;28;20233;-78
2022/01/10 06:56:50;;;;;;;37.45;19.25;;;;;;;4.66;100.00;62480.56;5088458;28;20196;-79
2022/01/10 06:59:17;;;;;;;37.00;18.17;;;;;;;4.41;100.00;62452.81;5090361;28;20223;-79
2022/01/10 07:01:44;;;;;;;31.13;16.90;;;;;;;4.44;100.00;62455.38;5082471;28;20197;-79
2022/01/10 07:04:12;;;;;;;24.15;14.95;;;;;;;4.58;100.00;62472.84;5070119;28;20221;-79
2022/01/10 07:06:40;;;;;;;19.75;12.30;;;;;;;4.51;100.00;62460.06;5087526;28;20197;-79
2022/01/10 07:09:11;;;;;;;18.10;11.50;;;;;;;4.57;100.00;62471.81;5086135;28;20237;-80
2022/01/10 07:11:40;;;;;;;18.88;12.13;;;;;;;4.51;100.00;62465.63;5078953;28;20191;-81
2022/01/10 07:14:08;;;;;;;31.20;18.05;;;;;;;4.57;100.00;62468.78;5090459;28;20232;-79
2022/01/10 07:16:35;;;;;;;25.02;15.95;;;;;;;4.55;100.00;62466.72;5070548;28;20205;-80
2022/01/10 07:19:02;;;;;;;25.50;15.55;;;;;;;4.56;100.00;62465.22;5076412;28;22199;-80
2022/01/10 07:21:29;;;;;;;30.95;16.73;;;;;;;4.56;100.00;62470.78;5073834;28;20224;-80
2022/01/10 07:23:56;;;;;;;31.92;16.30;;;;;;;4.49;100.00;62458.00;5080212;28;20217;-79
2022/01/10 07:26:23;;;;;;;20.52;12.50;;;;;;;4.32;100.00;62440.53;5082627;28;20302;-80
2022/01/10 07:28:50;;;;;;;22.02;13.20;;;;;;;4.56;100.00;62465.75;5081146;28;20252;-80
2022/01/10 07:31:18;;;;;;;57.63;24.45;;;;;;;4.28;100.00;62444.47;5071064;28;20205;-80
2022/01/10 07:33:45;;;;;;;107.72;30.73;;;;;;;4.32;100.00;62443.03;5080909;28;20299;-79
2022/01/10 07:36:12;;;;;;;101.50;36.20;;;;;;;4.46;100.00;62454.94;5088013;28;20196;-81
2022/01/10 07:38:40;;;;;;;74.00;23.15;;;;;;;4.44;100.00;62453.38;5089292;28;20539;-80
2022/01/10 07:41:08;;;;;;;100.82;37.38;;;;;;;4.40;100.00;62446.25;5085364;28;20200;-79
2022/01/10 07:43:37;;;;;;;88.30;36.17;;;;;;;4.47;100.00;62458.47;5078397;28;20221;-80
2022/01/10 07:46:07;;;;;;;41.40;19.48;;;;;;;4.25;100.00;62433.31;5072059;28;20212;-81
2022/01/10 07:48:41;;;;;;;19.65;11.40;;;;;;;4.56;100.00;62467.75;5070049;28;20272;-80
2022/01/10 07:51:09;;;;;;;16.23;8.43;;;;;;;4.55;100.00;62466.72;5069629;28;20203;-79
2022/01/10 07:53:37;;;;;;;14.25;7.63;;;;;;;4.84;100.00;62496.06;5068804;28;20525;-80
2022/01/10 07:56:04;;;;;;;8.85;5.72;;;;;;;4.90;100.00;62502.25;5069549;28;20197;-79
2022/01/10 07:58:32;;;;;;;4.90;3.88;;;;;;;5.02;100.00;62514.59;5080450;28;20222;-80
2022/01/10 08:00:59;;;;;;;3.75;2.90;;;;;;;5.01;100.00;62516.59;5085182;28;20200;-80
2022/01/10 08:03:27;;;;;;;3.72;3.20;;;;;;;5.39;100.00;62555.22;5078787;28;20224;-79
2022/01/10 08:05:55;;;;;;;4.60;4.15;;;;;;;5.40;100.00;62554.22;5090276;28;20415;-79
2022/01/10 08:08:22;;;;;;;5.90;3.90;;;;;;;5.51;100.00;62565.56;5078526;28;20594;-79
2022/01/10 08:10:49;;;;;;;6.72;3.67;;;;;;;5.64;100.00;62578.97;5077934;28;20197;-81
2022/01/10 08:13:16;;;;;;;11.55;6.82;;;;;;;5.64;100.00;62581.47;5070947;28;20226;-80
2022/01/10 08:15:43;;;;;;;13.18;9.43;;;;;;;5.65;100.00;62576.94;5084275;28;20293;-79
2022/01/10 08:18:11;;;;;;;38.90;13.45;;;;;;;5.35;100.00;62551.09;5086572;28;20200;-80
2022/01/10 08:20:38;;;;;;;22.48;10.63;;;;;;;4.95;100.00;62509.91;5068291;28;20284;-81
2022/01/10 08:23:07;;;;;;;20.80;11.80;;;;;;;4.92;100.00;62501.78;5072050;28;20252;-79
2022/01/10 08:25:34;;;;;;;16.25;11.77;;;;;;;4.71;100.00;62483.69;5076644;28;20205;-80
2022/01/10 08:28:01;;;;;;;22.88;12.30;;;;;;;4.51;100.00;62463.13;5075073;28;20227;-79
2022/01/10 08:30:28;;;;;;;20.10;13.88;;;;;;;4.44;100.00;62455.91;5088293;28;20235;-80
2022/01/10 08:32:55;;;;;;;35.05;13.57;;;;;;;4.41;100.00;62454.81;5091481;28;20201;-79
2022/01/10 08:35:21;;;;;;;32.83;13.27;;;;;;;4.33;100.00;62452.13;5079527;28;20279;-80
2022/01/10 08:37:48;;;;;;;26.65;13.40;;;;;;;4.27;100.00;62440.41;5088538;28;20201;-80
2022/01/10 08:40:17;;;;;;;19.83;10.80;;;;;;;4.32;100.00;62443.56;5084805;28;20213;-79
2022/01/10 08:42:44;;;;;;;29.10;13.43;;;;;;;4.26;100.00;62439.41;5075537;28;20258;-80
2022/01/10 08:45:11;;;;;;;25.90;14.30;;;;;;;4.23;100.00;62434.28;5089823;28;20250;-79
2022/01/10 08:47:39;;;;;;;19.08;11.18;;;;;;;4.28;100.00;62436.91;5084460;28;20205;-79
2022/01/10 08:50:08;;;;;;;23.55;11.98;;;;;;;4.32;100.00;62448.59;5088106;28;20213;-79
2022/01/10 08:52:35;;;;;;;13.10;9.70;;;;;;;4.54;100.00;62470.72;5089536;28;20197;-81
2022/01/10 08:55:02;;;;;;;15.57;8.88;;;;;;;4.47;100.00;62456.47;5079003;28;20217;-81
2022/01/10 08:57:30;;;;;;;16.40;9.25;;;;;;;4.39;100.00;62450.75;5080119;28;20199;-79
2022/01/10 08:59:57;;;;;;;15.52;9.40;;;;;;;4.27;100.00;62437.91;5080186;28;20221;-80
2022/01/10 09:02:24;;;;;;;16.05;9.77;;;;;;;4.34;100.00;62445.63;5078585;28;20224;-79
2022/01/10 09:04:51;;;;;;;20.05;10.20;;;;;;;4.21;100.00;62429.22;5095832;28;20228;-80
2022/01/10 09:07:18;;;;;;;18.27;11.57;;;;;;;4.13;100.00;62420.97;5092418;28;20212;-79
2022/01/10 09:09:45;;;;;;;24.60;11.05;;;;;;;4.13;100.00;62416.44;5088718;28;20288;-79
2022/01/10 09:12:12;;;;;;;16.52;9.07;;;;;;;4.26;100.00;62434.34;5095313;28;20203;-79
2022/01/10 09:14:41;;;;;;;18.88;9.80;;;;;;;4.40;100.00;62448.75;5094861;28;20232;-79
2022/01/10 09:17:07;;;;;;;17.90;9.65;;;;;;;4.44;100.00;62455.91;5092951;28;20254;-79
2022/01/10 09:19:34;;;;;;;21.02;10.75;;;;;;;4.54;100.00;62466.19;5100152;28;20220;-80
2022/01/10 09:22:01;;;;;;;20.17;10.95;;;;;;;4.46;100.00;62454.94;5096187;28;20428;-79
2022/01/10 09:24:29;;;;;;;21.00;12.52;;;;;;;4.54;100.00;62465.69;5092314;28;20239;-79
2022/01/10 09:26:56;;;;;;;18.33;10.68;;;;;;;4.76;100.00;62485.31;5080868;28;20201;-79
2022/01/10 09:29:24;;;;;;;18.02;9.90;;;;;;;4.80;100.00;62494.47;5081222;28;20225;-81
2022/01/10 09:31:52;;;;;;;18.45;9.80;;;;;;;4.56;100.00;62468.25;5084801;28;20505;-80
2022/01/10 09:34:19;;;;;;;21.15;11.07;;;;;;;4.82;100.00;62497.03;5072039;28;20229;-81
2022/01/10 09:36:47;;;;;;;21.70;10.15;;;;;;;4.72;100.00;62484.75;5103570;28;20204;-79
2022/01/10 09:39:14;;;;;;;22.08;10.98;;;;;;;4.83;100.00;62495.56;5111364;28;20235;-79
2022/01/10 09:41:41;;;;;;;15.13;9.70;;;;;;;4.81;100.00;62495.50;5093622;28;20517;-79
2022/01/10 09:44:08;;;;;;;13.60;9.50;;;;;;;4.73;100.00;62485.25;5072033;28;20221;-79
2022/01/10 09:46:36;;;;;;;19.40;10.88;;;;;;;4.64;100.00;62476.50;5087198;28;20481;-79
2022/01/10 09:49:06;;;;;;;15.13;8.73;;;;;;;4.69;100.00;62483.66;5093415;28;20262;-79
2022/01/10 09:51:33;;;;;;;20.15;10.07;;;;;;;4.75;100.00;62484.78;5092386;28;20512;-78
2022/01/10 09:54:03;;;;;;;25.67;9.90;;;;;;;4.73;100.00;62488.28;5093857;28;20216;-80
2022/01/10 09:56:31;;;;;;;20.15;9.63;;;;;;;4.71;100.00;62481.16;5094291;28;20197;-79
2022/01/10 09:58:58;;;;;;;17.02;11.05;;;;;;;4.63;100.00;62475.47;5105686;28;20212;-80
2022/01/10 10:01:27;;;;;;;13.88;9.52;;;;;;;4.68;100.00;62482.63;5089966;28;20227;-79
2022/01/10 10:03:58;;;;;;;16.85;8.32;;;;;;;4.82;100.00;62494.50;5090819;28;20227;-79
2022/01/10 10:06:28;;;;;;;21.10;10.00;;;;;;;4.92;100.00;62504.28;5090570;28;20207;-80
2022/01/10 10:08:57;;;;;;;14.80;9.05;;;;;;;4.86;100.00;62498.63;5090564;28;20230;-80
2022/01/10 10:11:24;;;;;;;16.70;9.35;;;;;;;4.83;100.00;62495.56;5089868;28;20197;-80
2022/01/10 10:13:54;;;;;;;18.58;10.38;;;;;;;4.89;100.00;62503.72;5092138;28;20240;-80
2022/01/10 10:16:21;;;;;;;24.15;11.95;;;;;;;4.84;100.00;62499.09;5073371;28;20237;-80
2022/01/10 10:18:48;;;;;;;20.52;12.65;;;;;;;4.85;100.00;62497.59;5071305;28;20289;-78
2022/01/10 10:21:17;;;;;;;20.25;11.43;;;;;;;4.90;100.00;62502.75;5109595;28;20202;-81
2022/01/10 10:23:48;;;;;;;19.63;10.98;;;;;;;4.94;100.00;62503.81;5099317;28;20220;-80
2022/01/10 10:26:19;;;;;;;16.40;10.75;;;;;;;5.07;100.00;62519.75;5086372;28;20202;-81
2022/01/10 10:28:47;;;;;;;16.42;10.57;;;;;;;5.14;100.00;62526.94;5088660;28;20215;-81
2022/01/10 10:31:14;;;;;;;17.02;10.10;;;;;;;5.19;100.00;62535.13;5088864;28;20200;-80
2022/01/10 10:33:49;;;;;;;21.23;9.98;;;;;;;5.10;100.00;62520.81;5082698;28;20242;-80
2022/01/10 10:36:17;;;;;;;18.73;11.00;;;;;;;5.07;100.00;62522.78;5089559;28;20232;-80
2022/01/10 10:38:46;;;;;;;20.40;11.68;;;;;;;4.88;100.00;62500.16;5088414;28;20266;-80
2022/01/10 10:41:13;;;;;;;25.48;12.82;;;;;;;5.02;100.00;62512.06;5072172;28;20205;-80
2022/01/10 10:43:42;;;;;;;23.90;12.48;;;;;;;4.74;100.00;62484.25;5098042;28;20220;-80
2022/01/10 10:46:13;;;;;;;24.90;13.20;;;;;;;4.97;100.00;62509.44;5080306;28;20196;-80
2022/01/10 10:48:42;;;;;;;25.63;13.40;;;;;;;5.00;100.00;62510.53;5094652;28;20212;-80
2022/01/10 10:51:10;;;;;;;25.13;14.13;;;;;;;4.98;100.00;62507.94;5108705;28;20248;-80
2022/01/10 10:53:38;;;;;;;24.40;13.57;;;;;;;4.95;100.00;62510.44;5109345;28;20264;-79
2022/01/10 10:56:07;;;;;;;27.45;11.65;;;;;;;5.08;100.00;62523.28;5106993;28;20231;-79
2022/01/10 10:58:34;;;;;;;22.90;12.85;;;;;;;4.91;100.00;62503.78;5089964;28;20292;-80
2022/01/10 11:01:02;;;;;;;20.85;12.85;;;;;;;4.87;100.00;62499.16;5092507;28;20252;-80
2022/01/10 11:03:29;;;;;;;28.27;14.00;;;;;;;4.94;100.00;62509.38;5093202;28;20237;-80
2022/01/10 11:05:59;;;;;;;30.90;14.07;;;;;;;4.99;100.00;62508.97;5090795;28;20262;-80
2022/01/10 11:08:28;;;;;;;31.67;16.85;;;;;;;4.86;100.00;62500.63;5089382;28;20298;-80
2022/01/10 11:10:55;;;;;;;28.20;15.10;;;;;;;5.01;100.00;62514.06;5089227;28;20287;-80
2022/01/10 11:13:24;;;;;;;29.23;14.95;;;;;;;4.86;100.00;62496.09;5088545;28;20258;-79
2022/01/10 11:15:52;;;;;;;23.10;13.00;;;;;;;4.81;100.00;62495.50;5086953;28;20247;-80
2022/01/10 11:18:22;;;;;;;19.80;11.90;;;;;;;4.75;100.00;62487.31;5087230;28;20259;-80
2022/01/10 11:20:51;;;;;;;22.67;13.60;;;;;;;4.98;100.00;62513.00;5105030;28;20237;-80
2022/01/10 11:23:18;;;;;;;30.48;15.77;;;;;;;4.89;100.00;62501.19;5103473;28;20556;-80
2022/01/10 11:25:45;;;;;;;38.83;14.63;;;;;;;5.10;100.00;62525.88;5086706;28;20239;-80
2022/01/10 11:28:21;;;;;;;58.00;15.30;;;;;;;5.04;100.00;62516.66;5073676;28;20505;-78
2022/01/10 11:30:51;;;;;;;31.65;13.93;;;;;;;5.07;100.00;62517.22;5067967;28;20396;-80
2022/01/10 11:33:21;;;;;;;27.35;12.45;;;;;;;5.14;100.00;62526.94;5075316;28;20217;-79
2022/01/10 11:35:51;;;;;;;35.97;13.75;;;;;;;5.11;100.00;62526.38;5088769;28;20216;-79